Time;durP1;ratioP1;P1;durP2;ratioP2;P2;SDS_P1;SDS_P2;PMS_P1;PMS_P2;Temp;Humidity;BMP_temperature;BMP_pressure;BME280_temperature;BME280_humidity;BME280_pressure;Samples;Min_cycle;Max_cycle;Signal;HPM_P1;HPM_P2
2021/08/16 00:01:56;;;;;;;14.23;8.48;;;16.70;99.90;;;;;;5104754;28;20142;-66
2021/08/16 00:04:22;;;;;;;14.38;8.43;;;16.80;99.90;;;;;;5102962;27;20545;-66
2021/08/16 00:06:47;;;;;;;11.73;7.78;;;16.80;99.90;;;;;;5106362;28;20035;-66
2021/08/16 00:09:13;;;;;;;12.98;6.97;;;16.90;99.90;;;;;;5104462;28;20585;-66
2021/08/16 00:11:42;;;;;;;11.55;7.32;;;16.90;99.90;;;;;;5110770;28;20054;-66
2021/08/16 00:14:08;;;;;;;18.75;8.13;;;17.00;99.90;;;;;;5104322;28;20104;-66
2021/08/16 00:16:34;;;;;;;13.20;7.05;;;17.00;99.90;;;;;;5101053;28;20044;-66
2021/08/16 00:19:00;;;;;;;15.10;7.25;;;17.10;99.90;;;;;;5102380;28;20092;-66
2021/08/16 00:21:26;;;;;;;16.20;7.18;;;17.10;99.90;;;;;;5108945;28;20494;-66
2021/08/16 00:23:51;;;;;;;16.10;6.60;;;17.10;99.90;;;;;;5108528;28;20046;-66
2021/08/16 00:26:17;;;;;;;21.33;6.57;;;17.10;99.90;;;;;;5103904;28;20040;-66
2021/08/16 00:28:43;;;;;;;14.93;5.38;;;17.20;99.90;;;;;;5102481;27;20063;-66
2021/08/16 00:31:09;;;;;;;15.68;6.75;;;17.20;99.90;;;;;;5105266;27;20471;-66
2021/08/16 00:33:34;;;;;;;11.05;5.63;;;17.20;99.90;;;;;;5101941;28;20463;-66
2021/08/16 00:36:00;;;;;;;18.85;5.70;;;17.20;99.90;;;;;;5104196;28;20636;-66
2021/08/16 00:38:26;;;;;;;14.68;5.55;;;17.20;99.90;;;;;;5105610;28;20055;-66
2021/08/16 00:40:53;;;;;;;18.60;5.53;;;17.20;99.90;;;;;;5104100;28;20040;-66
2021/08/16 00:43:19;;;;;;;14.77;5.05;;;17.30;99.90;;;;;;5103582;27;20040;-66
2021/08/16 00:45:45;;;;;;;16.13;4.75;;;17.20;99.90;;;;;;5103928;28;20478;-66
2021/08/16 00:48:11;;;;;;;15.73;4.95;;;17.20;99.90;;;;;;5105742;28;20115;-66
2021/08/16 00:50:37;;;;;;;17.88;4.82;;;17.30;99.90;;;;;;5101563;28;20513;-66
2021/08/16 00:53:03;;;;;;;15.50;4.38;;;17.30;99.90;;;;;;5104012;28;20027;-66
2021/08/16 00:55:30;;;;;;;17.13;4.60;;;17.30;99.90;;;;;;5103025;28;20039;-66
2021/08/16 00:57:58;;;;;;;19.23;4.35;;;17.30;99.90;;;;;;5104926;27;20032;-66
2021/08/16 01:00:24;;;;;;;21.52;4.90;;;17.30;99.90;;;;;;5101493;28;20440;-66
2021/08/16 01:02:50;;;;;;;23.75;5.53;;;17.30;99.90;;;;;;5102955;28;20089;-66
2021/08/16 01:05:16;;;;;;;21.08;5.05;;;17.30;99.90;;;;;;5102466;27;20035;-66
2021/08/16 01:07:45;;;;;;;19.17;4.38;;;17.30;99.90;;;;;;5107326;27;20036;-66
2021/08/16 01:10:21;;;;;;;19.52;4.45;;;17.30;99.90;;;;;;5108123;27;20394;-66
2021/08/16 01:12:47;;;;;;;22.00;6.18;;;17.30;99.90;;;;;;5106517;28;20040;-66
2021/08/16 01:15:15;;;;;;;20.23;5.97;;;17.30;99.90;;;;;;5102995;28;20054;-66
2021/08/16 01:17:42;;;;;;;24.25;4.60;;;17.30;99.90;;;;;;5101798;28;20115;-66
2021/08/16 01:20:12;;;;;;;21.23;4.18;;;17.30;99.90;;;;;;5102168;28;20040;-66
2021/08/16 01:22:38;;;;;;;23.40;5.55;;;17.30;99.90;;;;;;5104613;28;20043;-66
2021/08/16 01:25:07;;;;;;;21.52;4.63;;;17.20;99.90;;;;;;5105938;27;20031;-66
2021/08/16 01:27:33;;;;;;;20.63;5.03;;;17.30;99.90;;;;;;5102039;28;20088;-65
2021/08/16 01:29:59;;;;;;;26.80;5.45;;;17.20;99.90;;;;;;5103015;28;20104;-66
2021/08/16 01:32:25;;;;;;;24.75;5.00;;;17.20;99.90;;;;;;5102230;27;20080;-66
2021/08/16 01:34:51;;;;;;;23.00;5.70;;;17.20;99.90;;;;;;5103386;28;20040;-66
2021/08/16 01:37:16;;;;;;;20.13;4.38;;;17.20;99.90;;;;;;5099738;28;20044;-66
2021/08/16 01:39:42;;;;;;;20.05;5.82;;;17.20;99.90;;;;;;5102304;28;20032;-66
2021/08/16 01:42:08;;;;;;;24.33;5.90;;;17.20;99.90;;;;;;5102366;28;20420;-66
2021/08/16 01:44:33;;;;;;;21.67;5.32;;;17.20;99.90;;;;;;5103132;28;20044;-66
2021/08/16 01:46:59;;;;;;;22.65;6.15;;;17.20;99.90;;;;;;5100868;28;20060;-66
2021/08/16 01:49:25;;;;;;;28.80;4.82;;;17.20;99.90;;;;;;5103515;28;20051;-66
2021/08/16 01:51:50;;;;;;;23.98;5.47;;;17.20;99.90;;;;;;5102629;27;20097;-66
2021/08/16 01:54:17;;;;;;;28.23;5.22;;;17.20;99.90;;;;;;5103134;28;20466;-66
2021/08/16 01:56:43;;;;;;;23.33;5.40;;;17.20;99.90;;;;;;5106871;28;20036;-66
2021/08/16 01:59:08;;;;;;;26.92;5.10;;;17.20;99.90;;;;;;5099915;28;20039;-66
2021/08/16 02:01:34;;;;;;;16.95;4.78;;;17.20;99.90;;;;;;5100580;28;20036;-66
2021/08/16 02:04:00;;;;;;;19.83;5.00;;;17.20;99.90;;;;;;5105049;28;20031;-66
2021/08/16 02:06:25;;;;;;;18.95;4.80;;;17.20;99.90;;;;;;5105137;28;20412;-66
2021/08/16 02:08:51;;;;;;;17.73;4.85;;;17.20;99.90;;;;;;5101378;28;20040;-66
2021/08/16 02:11:17;;;;;;;20.65;6.20;;;17.10;99.90;;;;;;5103749;28;20047;-66
2021/08/16 02:13:43;;;;;;;23.45;5.10;;;17.20;99.90;;;;;;5100096;28;20043;-66
2021/08/16 02:16:10;;;;;;;25.30;5.88;;;17.10;99.90;;;;;;5103231;28;20047;-66
2021/08/16 02:18:36;;;;;;;26.20;4.90;;;17.10;99.90;;;;;;5100509;28;20036;-66
2021/08/16 02:21:01;;;;;;;13.52;4.50;;;17.10;99.90;;;;;;5099468;27;20120;-66
2021/08/16 02:23:27;;;;;;;23.42;5.50;;;17.10;99.90;;;;;;5099240;28;20043;-66
2021/08/16 02:25:53;;;;;;;23.77;5.85;;;17.10;99.90;;;;;;5104339;28;20470;-66
2021/08/16 02:28:18;;;;;;;27.10;5.93;;;17.20;99.90;;;;;;5105050;28;20471;-66
2021/08/16 02:30:46;;;;;;;24.10;5.20;;;17.10;99.90;;;;;;5098112;27;20028;-66
2021/08/16 02:33:15;;;;;;;25.60;5.82;;;17.10;99.90;;;;;;5101453;28;20043;-66
2021/08/16 02:35:42;;;;;;;23.20;4.88;;;17.10;99.90;;;;;;5099474;28;20130;-66
2021/08/16 02:38:08;;;;;;;28.15;6.53;;;17.10;99.90;;;;;;5104712;28;20096;-66
2021/08/16 02:40:34;;;;;;;23.25;5.28;;;17.00;99.90;;;;;;5107281;28;20035;-66
2021/08/16 02:42:59;;;;;;;22.02;5.68;;;17.10;99.90;;;;;;5101861;28;20035;-66
2021/08/16 02:45:26;;;;;;;21.90;5.07;;;17.10;99.90;;;;;;5098801;28;20040;-66
2021/08/16 02:47:51;;;;;;;25.25;5.65;;;17.10;99.90;;;;;;5101189;28;20032;-66
2021/08/16 02:50:17;;;;;;;22.83;4.90;;;17.00;99.90;;;;;;5105239;28;20510;-66
2021/08/16 02:52:43;;;;;;;24.33;5.65;;;17.10;99.90;;;;;;5103732;28;20052;-66
2021/08/16 02:55:09;;;;;;;29.90;6.95;;;17.10;99.90;;;;;;5106849;28;20046;-66
2021/08/16 02:57:35;;;;;;;23.58;4.90;;;17.10;99.90;;;;;;5098976;28;20069;-66
2021/08/16 03:00:01;;;;;;;23.80;5.10;;;17.00;99.90;;;;;;5099711;28;20043;-66
2021/08/16 03:02:26;;;;;;;18.90;4.82;;;17.10;99.90;;;;;;5097445;28;20043;-66
2021/08/16 03:04:53;;;;;;;22.75;4.97;;;17.10;99.90;;;;;;5103927;28;20473;-66
2021/08/16 03:07:19;;;;;;;23.58;5.35;;;17.10;99.90;;;;;;5100092;28;20047;-66
2021/08/16 03:09:45;;;;;;;24.88;5.80;;;17.00;99.90;;;;;;5100689;28;20036;-66
2021/08/16 03:12:11;;;;;;;24.33;5.85;;;17.10;99.90;;;;;;5102566;28;20445;-66
2021/08/16 03:14:36;;;;;;;20.90;5.20;;;17.00;99.90;;;;;;5102219;28;20535;-66
2021/08/16 03:17:03;;;;;;;30.23;5.75;;;17.00;99.90;;;;;;5102251;28;20093;-66
2021/08/16 03:19:29;;;;;;;26.30;5.60;;;17.00;99.90;;;;;;5102320;28;20042;-66
2021/08/16 03:21:55;;;;;;;26.05;5.53;;;17.10;99.90;;;;;;5103202;28;20031;-66
2021/08/16 03:24:21;;;;;;;25.02;5.13;;;17.00;99.90;;;;;;5101119;28;20043;-66
2021/08/16 03:26:46;;;;;;;26.88;6.70;;;17.00;99.90;;;;;;5103095;28;20524;-66
2021/08/16 03:29:12;;;;;;;24.17;6.07;;;17.00;99.90;;;;;;5105198;28;20075;-66
2021/08/16 03:31:38;;;;;;;19.27;5.40;;;17.00;99.90;;;;;;5100002;28;20032;-66
2021/08/16 03:34:04;;;;;;;25.63;6.93;;;17.10;99.90;;;;;;5103375;28;20035;-66
2021/08/16 03:36:31;;;;;;;26.58;6.32;;;17.00;99.90;;;;;;5109130;28;20437;-66
2021/08/16 03:38:56;;;;;;;25.80;5.70;;;17.00;99.90;;;;;;5107125;28;20102;-66
2021/08/16 03:41:22;;;;;;;24.15;6.30;;;17.10;99.90;;;;;;5107535;27;20212;-66
2021/08/16 03:43:48;;;;;;;25.17;6.28;;;17.00;99.90;;;;;;5103677;28;20113;-66
2021/08/16 03:46:14;;;;;;;23.35;6.28;;;17.10;99.90;;;;;;5102317;28;20042;-66
2021/08/16 03:48:39;;;;;;;23.38;5.20;;;17.00;99.90;;;;;;5106216;28;20092;-66
2021/08/16 03:51:05;;;;;;;25.52;7.03;;;17.10;99.90;;;;;;5107186;28;20490;-66
2021/08/16 03:53:31;;;;;;;18.98;5.63;;;17.00;99.90;;;;;;5107414;28;20056;-66
2021/08/16 03:55:57;;;;;;;21.33;5.72;;;17.00;99.90;;;;;;5103266;28;20039;-66
2021/08/16 03:58:22;;;;;;;25.52;5.85;;;17.00;99.90;;;;;;5102546;28;20032;-66
2021/08/16 04:00:48;;;;;;;21.42;5.55;;;17.00;99.90;;;;;;5103427;28;20512;-66
2021/08/16 04:03:14;;;;;;;22.30;5.80;;;17.00;99.90;;;;;;5103129;28;20505;-66
2021/08/16 04:05:40;;;;;;;24.55;6.30;;;17.00;99.90;;;;;;5103104;28;20089;-66
2021/08/16 04:08:06;;;;;;;26.90;6.47;;;17.00;99.90;;;;;;5101368;28;20079;-66
2021/08/16 04:10:32;;;;;;;19.83;6.07;;;17.00;99.90;;;;;;5104858;28;20377;-66
2021/08/16 04:12:58;;;;;;;24.90;6.20;;;17.00;99.90;;;;;;5106769;28;20135;-66
2021/08/16 04:15:24;;;;;;;25.42;6.25;;;17.00;99.90;;;;;;5098782;28;20135;-66
2021/08/16 04:17:51;;;;;;;24.83;6.10;;;17.00;99.90;;;;;;5103171;28;20055;-66
2021/08/16 04:20:19;;;;;;;30.30;6.40;;;17.00;99.90;;;;;;5102907;28;20044;-66
2021/08/16 04:22:45;;;;;;;29.20;6.70;;;17.00;99.90;;;;;;5105095;27;20043;-66
2021/08/16 04:25:13;;;;;;;22.55;6.25;;;17.00;99.90;;;;;;5107043;28;20528;-66
2021/08/16 04:27:40;;;;;;;24.92;6.43;;;17.00;99.90;;;;;;5106773;28;20046;-66
2021/08/16 04:30:07;;;;;;;19.70;5.78;;;17.10;99.90;;;;;;5104160;27;20479;-66
2021/08/16 04:32:33;;;;;;;24.67;6.68;;;17.10;99.90;;;;;;5104643;27;20101;-66
2021/08/16 04:35:02;;;;;;;20.88;5.40;;;17.10;99.90;;;;;;5106784;28;20036;-66
2021/08/16 04:37:28;;;;;;;22.63;6.38;;;17.10;99.90;;;;;;5107899;28;20043;-66
2021/08/16 04:39:54;;;;;;;23.95;6.03;;;17.10;99.90;;;;;;5103314;28;20069;-66
2021/08/16 04:42:20;;;;;;;26.17;6.55;;;17.00;99.90;;;;;;5102271;28;20035;-66
2021/08/16 04:44:46;;;;;;;27.33;6.95;;;17.10;99.90;;;;;;5102390;28;20046;-66
2021/08/16 04:47:12;;;;;;;23.20;6.95;;;17.10;99.90;;;;;;5106960;27;20113;-66
2021/08/16 04:49:37;;;;;;;27.85;7.03;;;17.00;99.90;;;;;;5103155;28;20043;-66
2021/08/16 04:52:03;;;;;;;34.35;8.60;;;17.10;99.90;;;;;;5106192;28;20122;-66
2021/08/16 04:54:33;;;;;;;17.52;6.40;;;17.10;99.90;;;;;;5103175;28;20038;-66
2021/08/16 04:56:59;;;;;;;26.58;6.72;;;17.10;99.90;;;;;;5106289;28;20039;-66
2021/08/16 04:59:24;;;;;;;29.02;6.38;;;17.10;99.90;;;;;;5100573;27;20032;-66
2021/08/16 05:01:50;;;;;;;31.00;6.30;;;17.10;99.90;;;;;;5101996;28;20491;-66
2021/08/16 05:04:16;;;;;;;27.27;6.53;;;17.10;99.90;;;;;;5101126;28;20040;-66
2021/08/16 05:06:46;;;;;;;21.50;5.70;;;17.20;99.90;;;;;;5104412;28;20078;-66
2021/08/16 05:09:13;;;;;;;26.88;7.57;;;17.20;99.90;;;;;;5105445;28;20536;-66
2021/08/16 05:11:39;;;;;;;22.88;6.20;;;17.20;99.90;;;;;;5104252;28;20035;-66
2021/08/16 05:14:05;;;;;;;19.50;6.30;;;17.30;99.90;;;;;;5105059;28;20065;-66
2021/08/16 05:16:31;;;;;;;20.73;6.45;;;17.20;99.90;;;;;;5099349;27;20745;-66
2021/08/16 05:18:57;;;;;;;20.65;6.53;;;17.30;99.90;;;;;;5103396;28;20085;-66
2021/08/16 05:21:23;;;;;;;16.13;5.47;;;17.20;99.90;;;;;;5105919;28;20032;-66
2021/08/16 05:23:50;;;;;;;25.40;6.38;;;17.30;99.90;;;;;;5109552;28;20482;-66
2021/08/16 05:26:15;;;;;;;19.85;5.65;;;17.30;99.90;;;;;;5101301;28;20039;-66
2021/08/16 05:29:00;;;;;;;21.48;6.47;;;17.40;99.90;;;;;;5103944;28;20105;-66
2021/08/16 05:31:26;;;;;;;21.95;6.35;;;17.40;99.90;;;;;;5100114;28;20028;-66
2021/08/16 05:33:52;;;;;;;14.45;5.32;;;17.50;99.90;;;;;;5104068;28;20120;-66
2021/08/16 05:36:17;;;;;;;18.27;6.03;;;17.50;99.90;;;;;;5101920;28;20039;-66
2021/08/16 05:38:45;;;;;;;24.85;6.05;;;17.50;99.90;;;;;;5100061;27;20046;-66
2021/08/16 05:41:11;;;;;;;24.17;6.10;;;17.50;99.90;;;;;;5100679;28;20097;-66
2021/08/16 05:43:37;;;;;;;22.25;5.45;;;17.50;99.90;;;;;;5103996;28;20039;-66
2021/08/16 05:46:03;;;;;;;25.55;7.00;;;17.50;99.90;;;;;;5101439;28;20036;-66
2021/08/16 05:48:29;;;;;;;20.08;6.05;;;17.50;99.90;;;;;;5101504;28;20044;-66
2021/08/16 05:50:54;;;;;;;21.70;6.20;;;17.50;99.90;;;;;;5098345;28;20028;-66
2021/08/16 05:53:20;;;;;;;23.15;5.63;;;17.50;99.90;;;;;;5104396;28;20042;-66
2021/08/16 05:55:46;;;;;;;18.70;5.75;;;17.50;99.90;;;;;;5103129;28;20063;-66
2021/08/16 05:58:11;;;;;;;24.55;6.03;;;17.50;99.90;;;;;;5101044;28;20048;-66
2021/08/16 06:00:55;;;;;;;15.75;5.20;;;17.50;99.90;;;;;;5101692;28;20114;-66
2021/08/16 06:03:22;;;;;;;15.65;5.07;;;17.50;99.90;;;;;;5104367;28;20335;-66
2021/08/16 06:05:48;;;;;;;13.27;5.45;;;17.50;99.90;;;;;;5105979;28;20039;-66
2021/08/16 06:08:14;;;;;;;17.15;6.25;;;17.50;99.90;;;;;;5106030;28;20468;-66
2021/08/16 06:10:39;;;;;;;12.85;5.07;;;17.50;99.90;;;;;;5106874;28;20047;-66
2021/08/16 06:13:06;;;;;;;12.48;4.72;;;17.50;99.90;;;;;;5098632;28;20031;-66
2021/08/16 06:15:32;;;;;;;8.45;3.83;;;17.50;99.90;;;;;;5100922;28;20122;-67
2021/08/16 06:17:58;;;;;;;10.45;4.60;;;17.50;99.90;;;;;;5102327;28;20066;-66
2021/08/16 06:20:24;;;;;;;10.23;3.97;;;17.50;99.90;;;;;;5104404;27;20096;-66
2021/08/16 06:22:50;;;;;;;8.98;3.63;;;17.50;99.90;;;;;;5106444;28;20027;-66
2021/08/16 06:25:16;;;;;;;9.95;3.42;;;17.40;99.90;;;;;;5101921;28;20040;-66
2021/08/16 06:27:42;;;;;;;9.13;3.10;;;17.40;99.90;;;;;;5101146;28;20123;-66
2021/08/16 06:30:08;;;;;;;6.03;2.97;;;17.40;99.90;;;;;;5102195;28;20127;-66
2021/08/16 06:32:35;;;;;;;12.95;4.85;;;17.50;99.90;;;;;;5101561;28;20437;-66
2021/08/16 06:35:01;;;;;;;7.10;3.67;;;17.50;99.90;;;;;;5105708;28;20044;-66
2021/08/16 06:37:27;;;;;;;14.85;4.38;;;17.50;99.90;;;;;;5101102;28;20044;-66
2021/08/16 06:39:53;;;;;;;9.65;4.25;;;17.50;99.90;;;;;;5105303;28;20050;-66
2021/08/16 06:42:20;;;;;;;13.80;5.00;;;17.50;99.90;;;;;;5106990;28;20061;-66
2021/08/16 06:44:46;;;;;;;11.55;5.28;;;17.40;99.90;;;;;;5099316;28;20139;-66
2021/08/16 06:47:12;;;;;;;8.05;3.88;;;17.60;99.90;;;;;;5105196;28;20531;-66
2021/08/16 06:49:38;;;;;;;7.13;3.45;;;17.60;99.90;;;;;;5097607;28;20059;-66
2021/08/16 06:52:05;;;;;;;7.45;4.07;;;17.60;99.90;;;;;;5106704;28;20040;-66
2021/08/16 06:54:31;;;;;;;8.90;4.68;;;17.70;99.90;;;;;;5106354;28;20508;-66
2021/08/16 06:57:03;;;;;;;5.57;3.17;;;17.70;99.90;;;;;;5101779;28;20063;-66
2021/08/16 06:59:31;;;;;;;5.70;3.03;;;17.80;99.90;;;;;;5099196;28;20056;-66
2021/08/16 07:01:57;;;;;;;5.50;2.63;;;17.90;99.90;;;;;;5101846;28;20032;-67
2021/08/16 07:04:24;;;;;;;6.25;2.83;;;17.90;99.90;;;;;;5102114;28;20092;-67
2021/08/16 07:06:49;;;;;;;6.32;2.35;;;18.00;99.90;;;;;;5103977;28;20115;-67
2021/08/16 07:09:15;;;;;;;5.10;1.92;;;18.20;99.90;;;;;;5106050;27;20126;-66
2021/08/16 07:11:41;;;;;;;8.07;2.45;;;18.30;99.90;;;;;;5102209;27;20478;-67
2021/08/16 07:14:06;;;;;;;3.22;1.52;;;18.40;99.90;;;;;;5105812;28;20118;-67
2021/08/16 07:16:33;;;;;;;4.80;1.60;;;18.50;99.90;;;;;;5104835;28;20035;-67
2021/08/16 07:18:58;;;;;;;4.47;1.42;;;18.60;99.90;;;;;;5106473;28;20038;-67
2021/08/16 07:21:24;;;;;;;3.63;1.55;;;18.60;99.90;;;;;;5105123;27;20044;-67
2021/08/16 07:23:50;;;;;;;3.20;1.05;;;18.70;99.90;;;;;;5104792;28;20036;-67
2021/08/16 07:26:16;;;;;;;5.90;1.20;;;18.80;99.90;;;;;;5102292;28;20043;-67
2021/08/16 07:28:45;;;;;;;2.85;1.40;;;18.90;99.90;;;;;;5104535;28;20039;-67
2021/08/16 07:31:11;;;;;;;7.63;1.15;;;18.90;99.90;;;;;;5109637;27;20072;-67
2021/08/16 07:33:36;;;;;;;4.53;1.10;;;18.80;99.90;;;;;;5104438;28;20067;-67
2021/08/16 07:36:02;;;;;;;6.30;1.55;;;18.60;99.90;;;;;;5106222;28;20599;-67
2021/08/16 07:38:28;;;;;;;4.32;0.88;;;18.50;99.90;;;;;;5107758;28;20032;-67
2021/08/16 07:40:54;;;;;;;6.85;1.10;;;18.20;99.90;;;;;;5105866;28;20044;-67
2021/08/16 07:43:20;;;;;;;4.82;0.75;;;18.00;99.90;;;;;;5107004;27;20121;-67
2021/08/16 07:45:48;;;;;;;5.95;1.48;;;17.90;99.90;;;;;;5104524;27;20110;-67
2021/08/16 07:48:14;;;;;;;2.72;0.65;;;17.90;99.90;;;;;;5106785;28;20044;-67
2021/08/16 07:50:40;;;;;;;4.60;1.42;;;17.80;99.90;;;;;;5108610;27;20050;-67
2021/08/16 07:53:07;;;;;;;5.00;0.93;;;17.80;99.90;;;;;;5110564;28;20035;-67
2021/08/16 07:55:32;;;;;;;3.38;0.90;;;17.80;99.90;;;;;;5104378;27;20037;-67
2021/08/16 07:57:58;;;;;;;5.25;1.10;;;17.90;99.90;;;;;;5105321;27;20399;-67
2021/08/16 08:00:24;;;;;;;5.18;1.98;;;17.90;99.90;;;;;;5104822;28;20034;-67
2021/08/16 08:02:50;;;;;;;6.68;1.20;;;18.20;99.90;;;;;;5104251;27;20047;-67
2021/08/16 08:05:21;;;;;;;3.83;0.60;;;18.60;99.90;;;;;;5104225;28;20478;-67
2021/08/16 08:07:48;;;;;;;4.13;0.80;;;19.10;99.90;;;;;;5105536;28;20164;-67
2021/08/16 08:10:15;;;;;;;6.00;1.40;;;19.40;99.90;;;;;;5106254;27;20525;-67
2021/08/16 08:12:42;;;;;;;4.35;1.00;;;19.60;99.90;;;;;;5104709;28;20077;-67
2021/08/16 08:15:09;;;;;;;6.40;0.95;;;19.70;99.90;;;;;;5103829;28;20040;-67
2021/08/16 08:17:35;;;;;;;3.38;0.90;;;19.70;99.90;;;;;;5105119;27;20145;-67
2021/08/16 08:20:04;;;;;;;6.70;2.05;;;19.60;99.90;;;;;;5106533;27;20036;-67
2021/08/16 08:22:31;;;;;;;4.22;1.23;;;19.40;99.90;;;;;;5106861;28;20036;-67
2021/08/16 08:24:56;;;;;;;6.13;1.15;;;19.20;99.90;;;;;;5104783;28;20042;-67
2021/08/16 08:27:22;;;;;;;4.25;1.13;;;19.00;99.90;;;;;;5106554;27;20044;-67
2021/08/16 08:29:48;;;;;;;4.97;1.27;;;18.80;99.90;;;;;;5104630;27;20036;-67
2021/08/16 08:32:14;;;;;;;4.65;1.10;;;18.60;99.90;;;;;;5100472;28;20039;-67
2021/08/16 08:34:40;;;;;;;4.15;0.93;;;18.40;99.90;;;;;;5103972;28;20110;-67
2021/08/16 08:37:15;;;;;;;8.98;1.80;;;18.30;99.90;;;;;;5106374;28;20139;-67
2021/08/16 08:39:47;;;;;;;3.80;1.05;;;18.20;99.90;;;;;;5098177;28;20081;-67
2021/08/16 08:42:14;;;;;;;5.68;1.50;;;18.10;99.90;;;;;;5102222;28;20039;-67
2021/08/16 08:44:41;;;;;;;4.75;1.23;;;18.00;99.90;;;;;;5104130;28;20495;-67
2021/08/16 08:47:07;;;;;;;7.82;1.80;;;17.90;99.90;;;;;;5101297;27;20054;-67
2021/08/16 08:49:33;;;;;;;7.95;1.95;;;17.90;99.90;;;;;;5107153;27;20032;-67
2021/08/16 08:52:00;;;;;;;4.13;1.48;;;17.80;99.90;;;;;;5104317;28;20031;-67
2021/08/16 08:54:29;;;;;;;4.30;1.35;;;17.90;99.90;;;;;;5103540;28;20039;-67
2021/08/16 08:56:56;;;;;;;6.72;1.50;;;17.90;99.90;;;;;;5104945;28;20043;-67
2021/08/16 08:59:22;;;;;;;7.22;1.40;;;18.00;99.90;;;;;;5104104;28;20039;-67
2021/08/16 09:01:55;;;;;;;6.68;1.30;;;18.10;99.90;;;;;;5103343;27;20573;-67
2021/08/16 09:04:22;;;;;;;8.88;1.90;;;18.20;99.90;;;;;;5102447;27;20113;-67
2021/08/16 09:06:48;;;;;;;5.07;1.40;;;18.10;99.90;;;;;;5102712;27;20040;-67
2021/08/16 09:09:15;;;;;;;5.13;1.60;;;18.30;99.90;;;;;;5103109;28;20031;-67
2021/08/16 09:11:49;;;;;;;8.38;2.00;;;18.50;99.90;;;;;;5106768;27;20059;-67
2021/08/16 09:14:15;;;;;;;6.38;1.48;;;18.70;99.90;;;;;;5102582;28;20489;-67
2021/08/16 09:16:44;;;;;;;12.13;2.55;;;18.80;99.90;;;;;;5102889;28;20070;-67
2021/08/16 09:19:19;;;;;;;7.18;1.52;;;19.10;99.90;;;;;;5106306;28;20044;-67
2021/08/16 09:21:53;;;;;;;7.20;1.67;;;19.40;99.90;;;;;;5106849;27;20031;-67
2021/08/16 09:24:31;;;;;;;7.15;2.00;;;19.60;99.90;;;;;;5103378;28;20052;-67
2021/08/16 09:27:05;;;;;;;7.18;1.67;;;19.50;99.90;;;;;;5106286;27;20031;-67
2021/08/16 09:29:31;;;;;;;10.15;2.17;;;19.50;99.90;;;;;;5102109;28;20498;-67
2021/08/16 09:32:04;;;;;;;7.95;2.00;;;19.40;99.90;;;;;;5105839;28;20039;-67
2021/08/16 09:34:37;;;;;;;8.30;2.00;;;19.40;99.90;;;;;;5102473;28;20032;-66
2021/08/16 09:37:25;;;;;;;7.15;1.90;;;19.30;99.90;;;;;;5107472;27;20048;-67
2021/08/16 09:40:05;;;;;;;8.00;1.75;;;19.20;99.90;;;;;;5105877;28;20039;-67
2021/08/16 09:42:49;;;;;;;8.15;2.15;;;19.20;99.90;;;;;;5100049;28;20398;-67
2021/08/16 09:45:38;;;;;;;6.95;2.85;;;19.20;99.90;;;;;;5100841;27;20064;-67
2021/08/16 09:48:06;;;;;;;6.00;1.77;;;19.20;99.90;;;;;;5102805;28;20067;-67
2021/08/16 09:50:39;;;;;;;5.57;1.90;;;19.10;99.90;;;;;;5102506;27;20047;-67
2021/08/16 09:53:07;;;;;;;6.60;2.10;;;18.90;99.90;;;;;;5101755;28;20044;-67
2021/08/16 09:55:34;;;;;;;7.45;2.05;;;18.60;99.90;;;;;;5104364;28;20036;-67
2021/08/16 09:58:01;;;;;;;6.85;1.95;;;18.30;99.90;;;;;;5106056;28;20036;-67
2021/08/16 10:00:27;;;;;;;8.27;1.73;;;18.20;99.90;;;;;;5100470;28;20043;-67
2021/08/16 10:02:54;;;;;;;9.77;2.17;;;18.10;99.90;;;;;;5100486;28;20051;-67
2021/08/16 10:05:19;;;;;;;6.95;1.73;;;18.10;99.90;;;;;;5104502;27;20043;-67
2021/08/16 10:07:47;;;;;;;7.82;1.80;;;17.90;99.90;;;;;;5103341;28;20058;-67
2021/08/16 10:10:15;;;;;;;7.35;1.73;;;17.90;99.90;;;;;;5104567;28;20478;-67
2021/08/16 10:12:41;;;;;;;14.93;2.38;;;17.90;99.90;;;;;;5104848;28;20036;-67
2021/08/16 10:15:10;;;;;;;8.27;1.60;;;17.90;99.90;;;;;;5105836;28;20035;-66
2021/08/16 10:17:39;;;;;;;6.15;1.52;;;17.80;99.90;;;;;;5102315;28;20039;-67
2021/08/16 10:20:06;;;;;;;6.05;1.45;;;17.90;99.90;;;;;;5104017;28;20035;-67
2021/08/16 10:22:39;;;;;;;6.88;1.52;;;17.90;99.90;;;;;;5105042;28;20035;-67
2021/08/16 10:25:18;;;;;;;5.18;1.35;;;18.00;99.90;;;;;;5104764;28;20031;-67
2021/08/16 10:27:45;;;;;;;8.95;1.63;;;18.10;99.90;;;;;;5100962;28;20032;-67
2021/08/16 10:30:16;;;;;;;7.80;1.50;;;18.10;99.90;;;;;;5128344;27;20110;-67
2021/08/16 10:32:42;;;;;;;3.13;0.70;;;18.20;99.90;;;;;;5103675;28;20058;-67
2021/08/16 10:35:12;;;;;;;11.32;2.10;;;18.20;99.90;;;;;;5103395;28;20043;-67
2021/08/16 10:37:43;;;;;;;5.35;0.95;;;18.20;99.90;;;;;;5102256;28;20036;-67
2021/08/16 10:40:26;;;;;;;6.20;1.42;;;18.20;99.90;;;;;;5099061;28;20030;-67
2021/08/16 10:42:55;;;;;;;3.85;0.93;;;18.30;99.90;;;;;;5097318;28;20036;-67
2021/08/16 10:45:31;;;;;;;7.32;1.35;;;18.30;99.90;;;;;;5100687;28;20485;-67
2021/08/16 10:48:05;;;;;;;8.75;2.15;;;18.10;99.90;;;;;;5098396;28;20436;-67
2021/08/16 10:50:31;;;;;;;4.88;2.05;;;17.70;99.90;;;;;;5101946;28;20067;-66
2021/08/16 10:53:08;;;;;;;8.75;2.72;;;17.50;99.90;;;;;;5101585;28;20169;-67
2021/08/16 10:55:42;;;;;;;6.82;1.40;;;17.40;99.90;;;;;;5104353;28;20070;-67
2021/08/16 10:58:08;;;;;;;7.30;1.80;;;17.40;99.90;;;;;;5102174;28;20043;-67
2021/08/16 11:00:39;;;;;;;7.43;2.28;;;17.30;99.90;;;;;;5102137;28;20063;-67
2021/08/16 11:03:07;;;;;;;10.60;2.03;;;17.40;99.90;;;;;;5105645;28;20040;-67
2021/08/16 11:05:35;;;;;;;6.18;2.25;;;17.30;99.90;;;;;;5105028;28;20635;-67
2021/08/16 11:08:03;;;;;;;6.85;1.88;;;17.40;99.90;;;;;;5101395;28;20063;-67
2021/08/16 11:10:48;;;;;;;15.35;2.53;;;17.40;99.90;;;;;;5097735;28;20042;-67
2021/08/16 11:13:21;;;;;;;4.93;1.70;;;17.50;99.90;;;;;;5104294;28;20039;-68
2021/08/16 11:15:48;;;;;;;8.02;2.17;;;17.60;99.90;;;;;;5100673;28;20032;-68
2021/08/16 11:18:20;;;;;;;7.18;2.33;;;17.60;99.90;;;;;;5102267;28;20039;-68
2021/08/16 11:20:55;;;;;;;6.78;2.17;;;17.80;99.90;;;;;;5100666;28;20091;-67
2021/08/16 11:23:21;;;;;;;;;;;17.80;99.90;;;;;;5101731;28;20048;-68
2021/08/16 11:25:55;;;;;;;12.02;2.83;;;17.90;99.90;;;;;;5099492;28;19961;-68
2021/08/16 11:28:23;;;;;;;8.43;2.20;;;18.10;99.90;;;;;;5105001;28;20052;-67
2021/08/16 11:30:49;;;;;;;10.10;2.30;;;18.10;99.90;;;;;;5100976;28;20539;-68
2021/08/16 11:33:23;;;;;;;10.07;2.47;;;18.20;99.90;;;;;;5100185;28;20048;-67
2021/08/16 11:35:48;;;;;;;8.65;2.00;;;18.30;99.90;;;;;;5103156;28;20081;-67
2021/08/16 11:38:14;;;;;;;5.65;1.92;;;18.40;99.90;;;;;;5098543;28;20106;-68
2021/08/16 11:40:40;;;;;;;10.02;2.08;;;18.40;99.90;;;;;;5099885;28;20036;-68
2021/08/16 11:43:06;;;;;;;10.95;2.95;;;18.50;99.90;;;;;;5098006;28;20456;-68
2021/08/16 11:45:37;;;;;;;11.90;3.60;;;18.60;99.90;;;;;;5099122;28;20040;-68
2021/08/16 11:48:03;;;;;;;12.68;2.33;;;18.80;99.90;;;;;;5097389;28;20209;-67
2021/08/16 11:50:28;;;;;;;10.98;2.08;;;18.80;99.90;;;;;;5102701;28;20150;-67
2021/08/16 11:52:54;;;;;;;11.10;2.47;;;18.70;99.90;;;;;;5102564;28;20028;-67
2021/08/16 11:55:25;;;;;;;14.07;2.15;;;18.70;99.90;;;;;;5104034;28;20038;-67
2021/08/16 11:57:55;;;;;;;8.88;2.47;;;18.80;99.90;;;;;;5109433;28;20483;-67
2021/08/16 12:00:26;;;;;;;8.63;2.40;;;18.70;99.90;;;;;;5104149;28;20135;-67
2021/08/16 12:02:58;;;;;;;11.02;2.47;;;18.60;99.90;;;;;;5109525;28;20039;-67
2021/08/16 12:05:27;;;;;;;10.77;2.38;;;18.60;99.90;;;;;;5108190;27;20043;-67
2021/08/16 12:07:53;;;;;;;12.55;2.63;;;18.40;99.90;;;;;;5104643;27;20374;-67
2021/08/16 12:10:20;;;;;;;12.93;2.58;;;18.10;99.90;;;;;;5104977;28;20043;-67
2021/08/16 12:13:01;;;;;;;9.40;2.20;;;18.10;99.90;;;;;;5102632;27;20108;-67
2021/08/16 12:15:38;;;;;;;5.93;1.60;;;18.10;99.90;;;;;;5104618;28;20132;-67
2021/08/16 12:18:07;;;;;;;11.40;2.40;;;18.20;99.90;;;;;;5104273;28;20036;-67
2021/08/16 12:20:44;;;;;;;8.27;2.13;;;18.30;99.90;;;;;;5101705;27;20485;-67
2021/08/16 12:23:21;;;;;;;14.63;2.30;;;18.30;99.90;;;;;;5102906;28;20058;-67
2021/08/16 12:25:48;;;;;;;9.90;2.35;;;18.30;99.90;;;;;;5104732;28;20059;-67
2021/08/16 12:28:14;;;;;;;18.13;2.67;;;18.40;99.90;;;;;;5105603;28;20039;-67
2021/08/16 12:30:40;;;;;;;8.23;2.08;;;18.60;99.90;;;;;;5101660;28;20036;-67
2021/08/16 12:33:18;;;;;;;9.32;2.40;;;18.70;99.90;;;;;;5103656;28;20039;-67
2021/08/16 12:35:58;;;;;;;8.93;2.30;;;18.70;99.90;;;;;;5101694;28;20058;-67
2021/08/16 12:38:29;;;;;;;11.32;3.13;;;18.80;99.90;;;;;;5105380;27;20036;-67
2021/08/16 12:41:06;;;;;;;11.18;2.70;;;18.60;99.50;;;;;;5103722;28;20043;-67
2021/08/16 12:43:50;;;;;;;15.57;3.03;;;18.50;99.90;;;;;;5102025;28;20047;-67